sensor_id;sensor_type;location;lat;lon;timestamp;temperature;humidity
68801;SHT31;55784;50.734;7.086;2023-07-31T00:00:12;19.26;76.60
68801;SHT31;55784;50.734;7.086;2023-07-31T00:02:37;19.26;76.80
68801;SHT31;55784;50.734;7.086;2023-07-31T00:05:03;19.27;76.72
68801;SHT31;55784;50.734;7.086;2023-07-31T00:07:29;19.27;76.65
68801;SHT31;55784;50.734;7.086;2023-07-31T00:09:54;19.31;76.64
68801;SHT31;55784;50.734;7.086;2023-07-31T00:12:21;19.27;76.74
68801;SHT31;55784;50.734;7.086;2023-07-31T00:14:47;19.21;76.91
68801;SHT31;55784;50.734;7.086;2023-07-31T00:17:12;19.28;76.93
68801;SHT31;55784;50.734;7.086;2023-07-31T00:19:38;19.27;76.87
68801;SHT31;55784;50.734;7.086;2023-07-31T00:22:03;19.26;77.02
68801;SHT31;55784;50.734;7.086;2023-07-31T00:24:28;19.23;77.13
68801;SHT31;55784;50.734;7.086;2023-07-31T00:26:54;19.26;77.16
68801;SHT31;55784;50.734;7.086;2023-07-31T00:29:19;19.24;77.23
68801;SHT31;55784;50.734;7.086;2023-07-31T00:31:44;19.23;77.37
68801;SHT31;55784;50.734;7.086;2023-07-31T00:34:10;19.24;77.43
68801;SHT31;55784;50.734;7.086;2023-07-31T00:36:35;19.23;77.53
68801;SHT31;55784;50.734;7.086;2023-07-31T00:39:00;19.27;77.43
68801;SHT31;55784;50.734;7.086;2023-07-31T00:41:26;19.26;77.48
68801;SHT31;55784;50.734;7.086;2023-07-31T00:43:51;19.26;77.54
68801;SHT31;55784;50.734;7.086;2023-07-31T00:46:16;19.23;77.76
68801;SHT31;55784;50.734;7.086;2023-07-31T00:48:42;19.28;77.72
68801;SHT31;55784;50.734;7.086;2023-07-31T00:51:08;19.24;77.84
68801;SHT31;55784;50.734;7.086;2023-07-31T00:53:33;19.24;78.00
68801;SHT31;55784;50.734;7.086;2023-07-31T00:55:59;19.26;78.00
68801;SHT31;55784;50.734;7.086;2023-07-31T00:58:24;19.27;78.08
68801;SHT31;55784;50.734;7.086;2023-07-31T01:00:50;19.24;78.17
68801;SHT31;55784;50.734;7.086;2023-07-31T01:03:16;19.21;78.27
68801;SHT31;55784;50.734;7.086;2023-07-31T01:06:13;19.27;78.18
68801;SHT31;55784;50.734;7.086;2023-07-31T01:09:02;19.24;78.15
68801;SHT31;55784;50.734;7.086;2023-07-31T01:11:30;19.13;78.60
68801;SHT31;55784;50.734;7.086;2023-07-31T01:13:57;19.13;78.76
68801;SHT31;55784;50.734;7.086;2023-07-31T01:16:22;19.16;78.94
68801;SHT31;55784;50.734;7.086;2023-07-31T01:18:48;19.13;78.90
68801;SHT31;55784;50.734;7.086;2023-07-31T01:21:21;19.10;79.17
68801;SHT31;55784;50.734;7.086;2023-07-31T01:24:23;19.10;79.10
68801;SHT31;55784;50.734;7.086;2023-07-31T01:27:04;19.10;79.61
68801;SHT31;55784;50.734;7.086;2023-07-31T01:29:47;19.03;80.49
68801;SHT31;55784;50.734;7.086;2023-07-31T01:32:13;18.95;81.20
68801;SHT31;55784;50.734;7.086;2023-07-31T01:34:41;18.83;81.71
68801;SHT31;55784;50.734;7.086;2023-07-31T01:37:06;18.80;81.97
68801;SHT31;55784;50.734;7.086;2023-07-31T01:39:31;18.89;82.69
68801;SHT31;55784;50.734;7.086;2023-07-31T01:41:57;18.68;82.77
68801;SHT31;55784;50.734;7.086;2023-07-31T01:44:22;18.68;82.75
68801;SHT31;55784;50.734;7.086;2023-07-31T01:46:47;18.68;83.21
68801;SHT31;55784;50.734;7.086;2023-07-31T01:49:13;18.58;83.50
68801;SHT31;55784;50.734;7.086;2023-07-31T01:51:38;18.68;83.00
68801;SHT31;55784;50.734;7.086;2023-07-31T01:54:03;18.69;83.12
68801;SHT31;55784;50.734;7.086;2023-07-31T01:56:29;18.70;82.60
68801;SHT31;55784;50.734;7.086;2023-07-31T01:58:54;18.75;82.59
68801;SHT31;55784;50.734;7.086;2023-07-31T02:01:19;18.72;82.53
68801;SHT31;55784;50.734;7.086;2023-07-31T02:03:45;18.73;82.39
68801;SHT31;55784;50.734;7.086;2023-07-31T02:06:10;18.85;81.86
68801;SHT31;55784;50.734;7.086;2023-07-31T02:08:36;18.93;81.63
68801;SHT31;55784;50.734;7.086;2023-07-31T02:11:01;18.93;81.59
68801;SHT31;55784;50.734;7.086;2023-07-31T02:13:26;18.93;82.04
68801;SHT31;55784;50.734;7.086;2023-07-31T02:15:52;18.86;81.43
68801;SHT31;55784;50.734;7.086;2023-07-31T02:18:17;18.87;81.56
68801;SHT31;55784;50.734;7.086;2023-07-31T02:20:42;18.90;81.59
68801;SHT31;55784;50.734;7.086;2023-07-31T02:23:08;18.89;81.46
68801;SHT31;55784;50.734;7.086;2023-07-31T02:25:33;18.83;81.06
68801;SHT31;55784;50.734;7.086;2023-07-31T02:27:58;18.80;81.29
68801;SHT31;55784;50.734;7.086;2023-07-31T02:30:24;18.83;81.14
68801;SHT31;55784;50.734;7.086;2023-07-31T02:32:49;18.77;81.35
68801;SHT31;55784;50.734;7.086;2023-07-31T02:35:15;18.77;81.03
68801;SHT31;55784;50.734;7.086;2023-07-31T02:37:41;18.83;81.17
68801;SHT31;55784;50.734;7.086;2023-07-31T02:40:07;18.77;80.77
68801;SHT31;55784;50.734;7.086;2023-07-31T02:42:33;18.80;80.86
68801;SHT31;55784;50.734;7.086;2023-07-31T02:44:58;18.85;80.69
68801;SHT31;55784;50.734;7.086;2023-07-31T02:47:23;18.77;80.88
68801;SHT31;55784;50.734;7.086;2023-07-31T02:49:49;18.80;80.80
68801;SHT31;55784;50.734;7.086;2023-07-31T02:52:14;18.87;80.32
68801;SHT31;55784;50.734;7.086;2023-07-31T02:54:39;18.77;80.34
68801;SHT31;55784;50.734;7.086;2023-07-31T02:57:05;18.73;80.09
68801;SHT31;55784;50.734;7.086;2023-07-31T02:59:30;18.68;79.97
68801;SHT31;55784;50.734;7.086;2023-07-31T03:01:55;18.69;80.19
68801;SHT31;55784;50.734;7.086;2023-07-31T03:04:21;18.79;79.75
68801;SHT31;55784;50.734;7.086;2023-07-31T03:06:46;18.82;79.46
68801;SHT31;55784;50.734;7.086;2023-07-31T03:09:11;18.86;79.14
68801;SHT31;55784;50.734;7.086;2023-07-31T03:11:37;18.93;79.20
68801;SHT31;55784;50.734;7.086;2023-07-31T03:14:02;18.92;78.88
68801;SHT31;55784;50.734;7.086;2023-07-31T03:16:27;18.92;78.75
68801;SHT31;55784;50.734;7.086;2023-07-31T03:18:54;18.86;78.66
68801;SHT31;55784;50.734;7.086;2023-07-31T03:21:19;18.90;78.81
68801;SHT31;55784;50.734;7.086;2023-07-31T03:23:44;18.93;78.74
68801;SHT31;55784;50.734;7.086;2023-07-31T03:26:10;18.97;78.38
68801;SHT31;55784;50.734;7.086;2023-07-31T03:28:36;18.93;78.35
68801;SHT31;55784;50.734;7.086;2023-07-31T03:31:01;18.95;78.42
68801;SHT31;55784;50.734;7.086;2023-07-31T03:33:27;18.96;78.41
68801;SHT31;55784;50.734;7.086;2023-07-31T03:35:52;18.96;78.27
68801;SHT31;55784;50.734;7.086;2023-07-31T03:38:18;18.95;78.24
68801;SHT31;55784;50.734;7.086;2023-07-31T03:40:43;18.93;78.15
68801;SHT31;55784;50.734;7.086;2023-07-31T03:43:08;18.92;78.15
68801;SHT31;55784;50.734;7.086;2023-07-31T03:45:34;18.95;78.19
68801;SHT31;55784;50.734;7.086;2023-07-31T03:47:59;18.92;78.23
68801;SHT31;55784;50.734;7.086;2023-07-31T03:50:25;18.96;78.12
68801;SHT31;55784;50.734;7.086;2023-07-31T03:52:50;18.96;78.00
68801;SHT31;55784;50.734;7.086;2023-07-31T03:55:16;18.96;77.98
68801;SHT31;55784;50.734;7.086;2023-07-31T03:57:41;18.95;78.08
68801;SHT31;55784;50.734;7.086;2023-07-31T04:00:07;18.90;78.10
68801;SHT31;55784;50.734;7.086;2023-07-31T04:02:32;18.93;78.17
68801;SHT31;55784;50.734;7.086;2023-07-31T04:04:58;18.93;78.08
68801;SHT31;55784;50.734;7.086;2023-07-31T04:07:23;19.03;77.71
68801;SHT31;55784;50.734;7.086;2023-07-31T04:09:48;19.02;77.77
68801;SHT31;55784;50.734;7.086;2023-07-31T04:12:14;19.00;77.74
68801;SHT31;55784;50.734;7.086;2023-07-31T04:14:39;19.00;77.74
68801;SHT31;55784;50.734;7.086;2023-07-31T04:17:04;18.97;77.84
68801;SHT31;55784;50.734;7.086;2023-07-31T04:19:30;18.96;77.75
68801;SHT31;55784;50.734;7.086;2023-07-31T04:21:55;18.99;77.70
68801;SHT31;55784;50.734;7.086;2023-07-31T04:24:20;18.97;77.77
68801;SHT31;55784;50.734;7.086;2023-07-31T04:26:53;18.95;77.74
68801;SHT31;55784;50.734;7.086;2023-07-31T04:29:18;19.02;77.43
68801;SHT31;55784;50.734;7.086;2023-07-31T04:31:44;19.07;77.33
68801;SHT31;55784;50.734;7.086;2023-07-31T04:34:09;19.10;77.26
68801;SHT31;55784;50.734;7.086;2023-07-31T04:36:34;19.07;77.27
68801;SHT31;55784;50.734;7.086;2023-07-31T04:39:00;19.11;77.20
68801;SHT31;55784;50.734;7.086;2023-07-31T04:41:26;19.10;77.18
68801;SHT31;55784;50.734;7.086;2023-07-31T04:43:51;19.13;77.31
68801;SHT31;55784;50.734;7.086;2023-07-31T04:46:17;19.17;77.13
68801;SHT31;55784;50.734;7.086;2023-07-31T04:48:42;19.24;77.04
68801;SHT31;55784;50.734;7.086;2023-07-31T04:51:08;19.30;76.88
68801;SHT31;55784;50.734;7.086;2023-07-31T04:53:34;19.35;76.75
68801;SHT31;55784;50.734;7.086;2023-07-31T04:55:59;19.44;76.51
68801;SHT31;55784;50.734;7.086;2023-07-31T04:58:25;19.47;76.22
68801;SHT31;55784;50.734;7.086;2023-07-31T05:00:50;19.54;76.03
68801;SHT31;55784;50.734;7.086;2023-07-31T05:03:15;19.65;76.01
68801;SHT31;55784;50.734;7.086;2023-07-31T05:05:41;19.70;75.58
68801;SHT31;55784;50.734;7.086;2023-07-31T05:08:06;19.75;75.32
68801;SHT31;55784;50.734;7.086;2023-07-31T05:10:31;19.78;75.33
68801;SHT31;55784;50.734;7.086;2023-07-31T05:12:57;19.82;75.25
68801;SHT31;55784;50.734;7.086;2023-07-31T05:15:23;19.89;75.01
68801;SHT31;55784;50.734;7.086;2023-07-31T05:17:48;19.92;74.99
68801;SHT31;55784;50.734;7.086;2023-07-31T05:20:13;20.02;74.90
68801;SHT31;55784;50.734;7.086;2023-07-31T05:22:40;20.08;74.69
68801;SHT31;55784;50.734;7.086;2023-07-31T05:25:05;20.21;74.40
68801;SHT31;55784;50.734;7.086;2023-07-31T05:27:31;20.30;74.13
68801;SHT31;55784;50.734;7.086;2023-07-31T05:29:56;20.40;73.90
68801;SHT31;55784;50.734;7.086;2023-07-31T05:32:21;20.47;73.79
68801;SHT31;55784;50.734;7.086;2023-07-31T05:34:47;20.54;73.71
68801;SHT31;55784;50.734;7.086;2023-07-31T05:37:13;20.50;73.83
68801;SHT31;55784;50.734;7.086;2023-07-31T05:39:39;20.53;73.90
68801;SHT31;55784;50.734;7.086;2023-07-31T05:42:04;20.56;73.72
68801;SHT31;55784;50.734;7.086;2023-07-31T05:44:30;20.59;73.64
68801;SHT31;55784;50.734;7.086;2023-07-31T05:46:55;20.56;73.87
68801;SHT31;55784;50.734;7.086;2023-07-31T05:49:20;20.56;74.04
68801;SHT31;55784;50.734;7.086;2023-07-31T05:51:46;20.52;73.98
68801;SHT31;55784;50.734;7.086;2023-07-31T05:54:11;20.52;74.11
68801;SHT31;55784;50.734;7.086;2023-07-31T05:56:36;20.44;74.33
68801;SHT31;55784;50.734;7.086;2023-07-31T05:59:02;20.43;74.39
68801;SHT31;55784;50.734;7.086;2023-07-31T06:01:28;20.40;74.66
68801;SHT31;55784;50.734;7.086;2023-07-31T06:03:53;20.40;74.85
68801;SHT31;55784;50.734;7.086;2023-07-31T06:06:19;20.36;75.00
68801;SHT31;55784;50.734;7.086;2023-07-31T06:08:44;20.26;75.53
68801;SHT31;55784;50.734;7.086;2023-07-31T06:11:09;20.22;76.27
68801;SHT31;55784;50.734;7.086;2023-07-31T06:13:35;20.13;77.89
68801;SHT31;55784;50.734;7.086;2023-07-31T06:16:00;20.11;78.23
68801;SHT31;55784;50.734;7.086;2023-07-31T06:18:30;20.04;78.07
68801;SHT31;55784;50.734;7.086;2023-07-31T06:20:55;19.96;78.94
68801;SHT31;55784;50.734;7.086;2023-07-31T06:23:21;19.91;80.07
68801;SHT31;55784;50.734;7.086;2023-07-31T06:25:46;19.85;80.47
68801;SHT31;55784;50.734;7.086;2023-07-31T06:28:12;19.72;81.39
68801;SHT31;55784;50.734;7.086;2023-07-31T06:30:37;19.65;82.44
68801;SHT31;55784;50.734;7.086;2023-07-31T06:33:02;19.60;82.42
68801;SHT31;55784;50.734;7.086;2023-07-31T06:35:28;19.62;83.02
68801;SHT31;55784;50.734;7.086;2023-07-31T06:37:53;19.64;83.49
68801;SHT31;55784;50.734;7.086;2023-07-31T06:40:18;19.62;83.48
68801;SHT31;55784;50.734;7.086;2023-07-31T06:42:44;19.65;83.24
68801;SHT31;55784;50.734;7.086;2023-07-31T06:45:10;19.72;83.07
68801;SHT31;55784;50.734;7.086;2023-07-31T06:47:35;19.78;83.01
68801;SHT31;55784;50.734;7.086;2023-07-31T06:50:01;19.86;82.88
68801;SHT31;55784;50.734;7.086;2023-07-31T06:52:26;19.91;82.85
68801;SHT31;55784;50.734;7.086;2023-07-31T06:55:03;19.98;82.99
68801;SHT31;55784;50.734;7.086;2023-07-31T06:57:29;20.12;82.65
68801;SHT31;55784;50.734;7.086;2023-07-31T06:59:54;20.25;82.41
68801;SHT31;55784;50.734;7.086;2023-07-31T07:02:20;20.46;82.09
68801;SHT31;55784;50.734;7.086;2023-07-31T07:04:45;20.66;81.59
68801;SHT31;55784;50.734;7.086;2023-07-31T07:07:11;20.93;80.94
68801;SHT31;55784;50.734;7.086;2023-07-31T07:09:36;21.17;80.45
68801;SHT31;55784;50.734;7.086;2023-07-31T07:12:02;21.54;79.32
68801;SHT31;55784;50.734;7.086;2023-07-31T07:14:27;21.99;77.96
68801;SHT31;55784;50.734;7.086;2023-07-31T07:16:52;22.23;77.06
68801;SHT31;55784;50.734;7.086;2023-07-31T07:19:17;22.35;76.75
68801;SHT31;55784;50.734;7.086;2023-07-31T07:21:43;22.24;76.03
68801;SHT31;55784;50.734;7.086;2023-07-31T07:24:08;22.20;75.78
68801;SHT31;55784;50.734;7.086;2023-07-31T07:26:33;22.14;75.63
68801;SHT31;55784;50.734;7.086;2023-07-31T07:28:59;21.95;75.10
68801;SHT31;55784;50.734;7.086;2023-07-31T07:31:27;21.88;75.64
68801;SHT31;55784;50.734;7.086;2023-07-31T07:33:52;21.58;75.85
68801;SHT31;55784;50.734;7.086;2023-07-31T07:36:18;21.31;76.54
68801;SHT31;55784;50.734;7.086;2023-07-31T07:38:43;21.27;77.95
68801;SHT31;55784;50.734;7.086;2023-07-31T07:41:08;21.06;76.87
68801;SHT31;55784;50.734;7.086;2023-07-31T07:43:34;20.91;78.34
68801;SHT31;55784;50.734;7.086;2023-07-31T07:45:59;20.87;77.17
68801;SHT31;55784;50.734;7.086;2023-07-31T07:48:24;20.80;77.71
68801;SHT31;55784;50.734;7.086;2023-07-31T07:50:50;20.87;77.62
68801;SHT31;55784;50.734;7.086;2023-07-31T07:53:16;20.87;78.25
68801;SHT31;55784;50.734;7.086;2023-07-31T07:55:41;20.80;78.50
68801;SHT31;55784;50.734;7.086;2023-07-31T07:58:08;20.73;78.88
68801;SHT31;55784;50.734;7.086;2023-07-31T08:00:33;20.67;79.87
68801;SHT31;55784;50.734;7.086;2023-07-31T08:02:58;20.59;80.05
68801;SHT31;55784;50.734;7.086;2023-07-31T08:05:23;20.57;79.99
68801;SHT31;55784;50.734;7.086;2023-07-31T08:07:49;20.57;80.52
68801;SHT31;55784;50.734;7.086;2023-07-31T08:10:14;20.60;81.04
68801;SHT31;55784;50.734;7.086;2023-07-31T08:12:40;20.69;81.64
68801;SHT31;55784;50.734;7.086;2023-07-31T08:15:05;20.64;80.57
68801;SHT31;55784;50.734;7.086;2023-07-31T08:17:31;20.72;80.31
68801;SHT31;55784;50.734;7.086;2023-07-31T08:19:56;20.72;80.47
68801;SHT31;55784;50.734;7.086;2023-07-31T08:22:23;20.84;80.24
68801;SHT31;55784;50.734;7.086;2023-07-31T08:24:49;20.96;79.99
68801;SHT31;55784;50.734;7.086;2023-07-31T08:27:14;21.07;79.79
68801;SHT31;55784;50.734;7.086;2023-07-31T08:29:39;21.11;80.20
68801;SHT31;55784;50.734;7.086;2023-07-31T08:32:05;21.07;80.44
68801;SHT31;55784;50.734;7.086;2023-07-31T08:34:30;20.98;80.96
68801;SHT31;55784;50.734;7.086;2023-07-31T08:36:56;20.80;81.88
68801;SHT31;55784;50.734;7.086;2023-07-31T08:39:21;20.56;82.24
68801;SHT31;55784;50.734;7.086;2023-07-31T08:41:47;20.56;82.46
68801;SHT31;55784;50.734;7.086;2023-07-31T08:44:13;20.53;82.15
68801;SHT31;55784;50.734;7.086;2023-07-31T08:46:39;20.67;82.10
68801;SHT31;55784;50.734;7.086;2023-07-31T08:49:05;20.73;81.56
68801;SHT31;55784;50.734;7.086;2023-07-31T08:56:09;20.60;83.15
68801;SHT31;55784;50.734;7.086;2023-07-31T08:58:45;20.46;83.95
68801;SHT31;55784;50.734;7.086;2023-07-31T09:04:42;20.44;83.48
68801;SHT31;55784;50.734;7.086;2023-07-31T09:07:23;20.42;84.03
68801;SHT31;55784;50.734;7.086;2023-07-31T09:17:29;20.54;83.99
68801;SHT31;55784;50.734;7.086;2023-07-31T09:27:16;20.69;83.70
68801;SHT31;55784;50.734;7.086;2023-07-31T09:33:22;20.60;83.55
68801;SHT31;55784;50.734;7.086;2023-07-31T09:39:45;20.80;83.31
68801;SHT31;55784;50.734;7.086;2023-07-31T09:42:48;20.74;83.92
68801;SHT31;55784;50.734;7.086;2023-07-31T09:48:46;20.88;83.26
68801;SHT31;55784;50.734;7.086;2023-07-31T09:55:10;21.21;81.50
68801;SHT31;55784;50.734;7.086;2023-07-31T09:57:55;21.32;77.90
68801;SHT31;55784;50.734;7.086;2023-07-31T10:03:43;21.86;76.01
68801;SHT31;55784;50.734;7.086;2023-07-31T10:06:23;22.26;74.33
68801;SHT31;55784;50.734;7.086;2023-07-31T10:09:02;22.71;72.75
68801;SHT31;55784;50.734;7.086;2023-07-31T10:11:46;22.86;71.03
68801;SHT31;55784;50.734;7.086;2023-07-31T10:14:32;23.19;70.89
68801;SHT31;55784;50.734;7.086;2023-07-31T10:17:26;23.42;70.69
68801;SHT31;55784;50.734;7.086;2023-07-31T10:20:18;23.58;69.96
68801;SHT31;55784;50.734;7.086;2023-07-31T10:23:09;23.69;68.09
68801;SHT31;55784;50.734;7.086;2023-07-31T10:25:52;24.05;66.81
68801;SHT31;55784;50.734;7.086;2023-07-31T10:28:43;24.40;66.32
68801;SHT31;55784;50.734;7.086;2023-07-31T10:31:29;24.69;65.41
68801;SHT31;55784;50.734;7.086;2023-07-31T10:34:29;24.74;63.56
68801;SHT31;55784;50.734;7.086;2023-07-31T10:37:45;25.22;62.57
68801;SHT31;55784;50.734;7.086;2023-07-31T10:40:27;25.33;62.86
68801;SHT31;55784;50.734;7.086;2023-07-31T10:43:01;25.60;61.62
68801;SHT31;55784;50.734;7.086;2023-07-31T10:45:44;25.59;61.39
68801;SHT31;55784;50.734;7.086;2023-07-31T10:48:21;25.53;60.69
68801;SHT31;55784;50.734;7.086;2023-07-31T10:50:55;25.79;60.45
68801;SHT31;55784;50.734;7.086;2023-07-31T10:53:41;25.76;60.67
68801;SHT31;55784;50.734;7.086;2023-07-31T10:56:10;25.74;60.00
68801;SHT31;55784;50.734;7.086;2023-07-31T10:59:02;25.19;60.55
68801;SHT31;55784;50.734;7.086;2023-07-31T11:01:55;25.26;60.90
68801;SHT31;55784;50.734;7.086;2023-07-31T11:04:44;25.12;60.59
68801;SHT31;55784;50.734;7.086;2023-07-31T11:10:24;25.36;60.38
68801;SHT31;55784;50.734;7.086;2023-07-31T11:13:21;24.78;60.62
68801;SHT31;55784;50.734;7.086;2023-07-31T11:16:22;24.72;61.90
68801;SHT31;55784;50.734;7.086;2023-07-31T11:19:10;24.20;62.40
68801;SHT31;55784;50.734;7.086;2023-07-31T11:21:38;24.13;62.75
68801;SHT31;55784;50.734;7.086;2023-07-31T11:24:12;24.27;62.72
68801;SHT31;55784;50.734;7.086;2023-07-31T11:26:52;24.37;62.43
68801;SHT31;55784;50.734;7.086;2023-07-31T11:29:33;24.33;62.56
68801;SHT31;55784;50.734;7.086;2023-07-31T11:32:02;23.92;63.99
68801;SHT31;55784;50.734;7.086;2023-07-31T11:41:58;23.70;69.62
68801;SHT31;55784;50.734;7.086;2023-07-31T11:45:19;23.96;70.23
68801;SHT31;55784;50.734;7.086;2023-07-31T11:54:23;25.01;66.32
68801;SHT31;55784;50.734;7.086;2023-07-31T11:56:54;25.15;65.28
68801;SHT31;55784;50.734;7.086;2023-07-31T11:59:24;25.15;65.06
68801;SHT31;55784;50.734;7.086;2023-07-31T12:01:50;25.52;64.23
68801;SHT31;55784;50.734;7.086;2023-07-31T12:04:18;25.65;63.72
68801;SHT31;55784;50.734;7.086;2023-07-31T12:06:44;25.58;63.05
68801;SHT31;55784;50.734;7.086;2023-07-31T12:09:10;25.79;61.61
68801;SHT31;55784;50.734;7.086;2023-07-31T12:11:46;26.18;60.70
68801;SHT31;55784;50.734;7.086;2023-07-31T12:14:25;26.23;60.28
68801;SHT31;55784;50.734;7.086;2023-07-31T12:17:04;26.44;59.62
68801;SHT31;55784;50.734;7.086;2023-07-31T12:19:30;26.34;60.01
68801;SHT31;55784;50.734;7.086;2023-07-31T12:21:56;26.28;59.28
68801;SHT31;55784;50.734;7.086;2023-07-31T12:24:21;26.74;58.19
68801;SHT31;55784;50.734;7.086;2023-07-31T12:26:48;26.75;58.14
68801;SHT31;55784;50.734;7.086;2023-07-31T12:29:14;26.54;58.92
68801;SHT31;55784;50.734;7.086;2023-07-31T12:31:41;26.69;58.68
68801;SHT31;55784;50.734;7.086;2023-07-31T12:34:15;26.62;58.61
68801;SHT31;55784;50.734;7.086;2023-07-31T12:36:42;26.48;59.27
68801;SHT31;55784;50.734;7.086;2023-07-31T12:39:08;26.30;59.35
68801;SHT31;55784;50.734;7.086;2023-07-31T12:41:33;26.13;59.46
68801;SHT31;55784;50.734;7.086;2023-07-31T12:43:59;25.65;60.38
68801;SHT31;55784;50.734;7.086;2023-07-31T12:46:24;25.72;60.81
68801;SHT31;55784;50.734;7.086;2023-07-31T12:48:49;25.59;61.21
68801;SHT31;55784;50.734;7.086;2023-07-31T12:51:15;25.50;61.48
68801;SHT31;55784;50.734;7.086;2023-07-31T12:53:40;25.15;62.04
68801;SHT31;55784;50.734;7.086;2023-07-31T12:56:05;24.79;62.73
68801;SHT31;55784;50.734;7.086;2023-07-31T12:58:31;24.79;62.87
68801;SHT31;55784;50.734;7.086;2023-07-31T13:00:56;24.58;63.34
68801;SHT31;55784;50.734;7.086;2023-07-31T13:03:22;24.50;63.51
68801;SHT31;55784;50.734;7.086;2023-07-31T13:05:47;24.60;63.23
68801;SHT31;55784;50.734;7.086;2023-07-31T13:08:13;24.82;62.54
68801;SHT31;55784;50.734;7.086;2023-07-31T13:10:41;24.85;62.10
68801;SHT31;55784;50.734;7.086;2023-07-31T13:13:06;25.19;61.32
68801;SHT31;55784;50.734;7.086;2023-07-31T13:15:31;25.40;60.82
68801;SHT31;55784;50.734;7.086;2023-07-31T13:17:56;25.47;60.51
68801;SHT31;55784;50.734;7.086;2023-07-31T13:20:22;25.35;60.48
68801;SHT31;55784;50.734;7.086;2023-07-31T13:22:48;25.52;60.27
68801;SHT31;55784;50.734;7.086;2023-07-31T13:25:13;25.42;60.25
68801;SHT31;55784;50.734;7.086;2023-07-31T13:27:39;25.46;60.27
68801;SHT31;55784;50.734;7.086;2023-07-31T13:30:05;25.33;60.77
68801;SHT31;55784;50.734;7.086;2023-07-31T13:32:31;25.45;60.98
68801;SHT31;55784;50.734;7.086;2023-07-31T13:34:56;25.60;60.19
68801;SHT31;55784;50.734;7.086;2023-07-31T13:37:22;25.93;59.46
68801;SHT31;55784;50.734;7.086;2023-07-31T13:39:50;26.13;59.04
68801;SHT31;55784;50.734;7.086;2023-07-31T13:42:16;26.24;58.65
68801;SHT31;55784;50.734;7.086;2023-07-31T13:44:42;26.04;58.69
68801;SHT31;55784;50.734;7.086;2023-07-31T13:47:08;26.00;58.61
68801;SHT31;55784;50.734;7.086;2023-07-31T13:49:37;25.91;58.54
68801;SHT31;55784;50.734;7.086;2023-07-31T13:52:04;26.01;58.48
68801;SHT31;55784;50.734;7.086;2023-07-31T13:54:32;25.94;58.36
68801;SHT31;55784;50.734;7.086;2023-07-31T13:56:58;26.33;58.14
68801;SHT31;55784;50.734;7.086;2023-07-31T13:59:23;26.71;57.58
68801;SHT31;55784;50.734;7.086;2023-07-31T14:01:49;26.85;56.91
68801;SHT31;55784;50.734;7.086;2023-07-31T14:04:15;26.82;56.77
68801;SHT31;55784;50.734;7.086;2023-07-31T14:06:41;26.98;56.72
68801;SHT31;55784;50.734;7.086;2023-07-31T14:09:06;27.20;56.43
68801;SHT31;55784;50.734;7.086;2023-07-31T14:11:32;27.50;56.22
68801;SHT31;55784;50.734;7.086;2023-07-31T14:13:57;27.61;55.69
68801;SHT31;55784;50.734;7.086;2023-07-31T14:16:23;27.49;55.59
68801;SHT31;55784;50.734;7.086;2023-07-31T14:18:48;26.74;56.77
68801;SHT31;55784;50.734;7.086;2023-07-31T14:21:14;26.59;57.32
68801;SHT31;55784;50.734;7.086;2023-07-31T14:23:40;26.23;58.00
68801;SHT31;55784;50.734;7.086;2023-07-31T14:26:06;26.38;58.07
68801;SHT31;55784;50.734;7.086;2023-07-31T14:28:32;26.33;58.11
68801;SHT31;55784;50.734;7.086;2023-07-31T14:30:57;25.89;59.14
68801;SHT31;55784;50.734;7.086;2023-07-31T14:33:23;25.70;59.56
68801;SHT31;55784;50.734;7.086;2023-07-31T14:35:48;25.50;60.11
68801;SHT31;55784;50.734;7.086;2023-07-31T14:38:13;25.19;60.99
68801;SHT31;55784;50.734;7.086;2023-07-31T14:40:39;24.92;61.65
68801;SHT31;55784;50.734;7.086;2023-07-31T14:43:05;24.71;62.32
68801;SHT31;55784;50.734;7.086;2023-07-31T14:45:30;24.77;62.35
68801;SHT31;55784;50.734;7.086;2023-07-31T14:47:55;24.72;62.43
68801;SHT31;55784;50.734;7.086;2023-07-31T14:50:21;24.61;62.36
68801;SHT31;55784;50.734;7.086;2023-07-31T14:52:47;24.77;62.14
68801;SHT31;55784;50.734;7.086;2023-07-31T14:55:13;24.64;62.65
68801;SHT31;55784;50.734;7.086;2023-07-31T14:57:38;24.65;62.30
68801;SHT31;55784;50.734;7.086;2023-07-31T15:00:04;24.58;62.50
68801;SHT31;55784;50.734;7.086;2023-07-31T15:02:42;24.57;62.80
68801;SHT31;55784;50.734;7.086;2023-07-31T15:05:08;24.54;62.95
68801;SHT31;55784;50.734;7.086;2023-07-31T15:07:33;24.60;62.42
68801;SHT31;55784;50.734;7.086;2023-07-31T15:09:59;24.33;63.04
68801;SHT31;55784;50.734;7.086;2023-07-31T15:12:25;24.23;63.18
68801;SHT31;55784;50.734;7.086;2023-07-31T15:14:51;24.10;63.72
68801;SHT31;55784;50.734;7.086;2023-07-31T15:17:17;24.02;63.97
68801;SHT31;55784;50.734;7.086;2023-07-31T15:19:42;23.77;64.48
68801;SHT31;55784;50.734;7.086;2023-07-31T15:22:08;23.70;64.37
68801;SHT31;55784;50.734;7.086;2023-07-31T15:24:33;23.63;64.79
68801;SHT31;55784;50.734;7.086;2023-07-31T15:26:58;23.66;64.84
68801;SHT31;55784;50.734;7.086;2023-07-31T15:29:24;23.67;64.66
68801;SHT31;55784;50.734;7.086;2023-07-31T15:31:50;23.63;64.96
68801;SHT31;55784;50.734;7.086;2023-07-31T15:34:16;23.76;64.84
68801;SHT31;55784;50.734;7.086;2023-07-31T15:36:42;23.83;64.66
68801;SHT31;55784;50.734;7.086;2023-07-31T15:39:07;23.87;64.68
68801;SHT31;55784;50.734;7.086;2023-07-31T15:41:37;23.82;64.61
68801;SHT31;55784;50.734;7.086;2023-07-31T15:44:03;23.79;64.49
68801;SHT31;55784;50.734;7.086;2023-07-31T15:46:28;23.79;64.80
68801;SHT31;55784;50.734;7.086;2023-07-31T15:48:54;23.86;64.11
68801;SHT31;55784;50.734;7.086;2023-07-31T15:51:19;23.80;64.29
68801;SHT31;55784;50.734;7.086;2023-07-31T15:53:45;23.70;64.27
68801;SHT31;55784;50.734;7.086;2023-07-31T15:56:10;23.58;64.80
68801;SHT31;55784;50.734;7.086;2023-07-31T15:58:35;23.32;65.26
68801;SHT31;55784;50.734;7.086;2023-07-31T16:01:01;23.19;65.52
68801;SHT31;55784;50.734;7.086;2023-07-31T16:03:26;23.02;66.11
68801;SHT31;55784;50.734;7.086;2023-07-31T16:05:51;23.02;66.06
68801;SHT31;55784;50.734;7.086;2023-07-31T16:08:17;23.00;66.31
68801;SHT31;55784;50.734;7.086;2023-07-31T16:10:53;22.98;66.59
68801;SHT31;55784;50.734;7.086;2023-07-31T16:13:28;22.98;66.84
68801;SHT31;55784;50.734;7.086;2023-07-31T16:15:53;22.86;68.20
68801;SHT31;55784;50.734;7.086;2023-07-31T16:18:19;22.77;69.70
68801;SHT31;55784;50.734;7.086;2023-07-31T16:20:44;22.57;70.77
68801;SHT31;55784;50.734;7.086;2023-07-31T16:23:09;22.47;72.80
68801;SHT31;55784;50.734;7.086;2023-07-31T16:25:35;22.40;75.37
68801;SHT31;55784;50.734;7.086;2023-07-31T16:28:01;22.12;74.20
68801;SHT31;55784;50.734;7.086;2023-07-31T16:30:27;21.98;75.76
68801;SHT31;55784;50.734;7.086;2023-07-31T16:32:52;21.89;76.66